sensor_id;sensor_type;location;lat;lon;timestamp;P1;durP1;ratioP1;P2;durP2;ratioP2
79578;SDS011;69051;52.406;5.280;2023-07-29T00:00:01;4.45;;;1.75;;
79578;SDS011;69051;52.406;5.280;2023-07-29T00:02:27;5.72;;;1.70;;
79578;SDS011;69051;52.406;5.280;2023-07-29T00:04:57;4.88;;;1.70;;
79578;SDS011;69051;52.406;5.280;2023-07-29T00:07:23;6.03;;;1.70;;
79578;SDS011;69051;52.406;5.280;2023-07-29T00:09:50;3.83;;;1.70;;
79578;SDS011;69051;52.406;5.280;2023-07-29T00:12:16;4.53;;;1.55;;
79578;SDS011;69051;52.406;5.280;2023-07-29T00:14:42;8.35;;;1.77;;
79578;SDS011;69051;52.406;5.280;2023-07-29T00:17:09;6.22;;;1.50;;
79578;SDS011;69051;52.406;5.280;2023-07-29T00:19:35;7.53;;;1.50;;
79578;SDS011;69051;52.406;5.280;2023-07-29T00:22:02;5.03;;;1.15;;
79578;SDS011;69051;52.406;5.280;2023-07-29T00:24:28;6.05;;;1.38;;
79578;SDS011;69051;52.406;5.280;2023-07-29T00:26:55;2.45;;;1.05;;
79578;SDS011;69051;52.406;5.280;2023-07-29T00:29:21;4.25;;;1.08;;
79578;SDS011;69051;52.406;5.280;2023-07-29T00:31:48;5.25;;;1.33;;
79578;SDS011;69051;52.406;5.280;2023-07-29T00:34:14;4.70;;;1.40;;
79578;SDS011;69051;52.406;5.280;2023-07-29T00:36:45;4.20;;;1.20;;
79578;SDS011;69051;52.406;5.280;2023-07-29T00:39:12;4.85;;;1.20;;
79578;SDS011;69051;52.406;5.280;2023-07-29T00:41:39;6.63;;;1.30;;
79578;SDS011;69051;52.406;5.280;2023-07-29T00:44:05;4.47;;;1.48;;
79578;SDS011;69051;52.406;5.280;2023-07-29T00:46:33;5.75;;;1.40;;
79578;SDS011;69051;52.406;5.280;2023-07-29T00:49:01;7.80;;;1.30;;
79578;SDS011;69051;52.406;5.280;2023-07-29T00:51:28;7.43;;;1.40;;
79578;SDS011;69051;52.406;5.280;2023-07-29T00:53:54;2.45;;;0.95;;
79578;SDS011;69051;52.406;5.280;2023-07-29T00:56:21;5.20;;;1.30;;
79578;SDS011;69051;52.406;5.280;2023-07-29T00:58:47;6.03;;;1.25;;
79578;SDS011;69051;52.406;5.280;2023-07-29T01:01:14;7.18;;;1.35;;
79578;SDS011;69051;52.406;5.280;2023-07-29T01:03:40;3.70;;;1.15;;
79578;SDS011;69051;52.406;5.280;2023-07-29T01:06:29;6.93;;;1.13;;
79578;SDS011;69051;52.406;5.280;2023-07-29T01:15:11;5.80;;;1.23;;
79578;SDS011;69051;52.406;5.280;2023-07-29T01:17:46;5.93;;;1.50;;
79578;SDS011;69051;52.406;5.280;2023-07-29T01:20:15;6.35;;;1.50;;
79578;SDS011;69051;52.406;5.280;2023-07-29T01:22:43;7.65;;;1.40;;
79578;SDS011;69051;52.406;5.280;2023-07-29T01:25:10;4.07;;;1.40;;
79578;SDS011;69051;52.406;5.280;2023-07-29T01:27:36;6.57;;;1.52;;
79578;SDS011;69051;52.406;5.280;2023-07-29T01:30:03;7.63;;;1.50;;
79578;SDS011;69051;52.406;5.280;2023-07-29T01:35:36;5.80;;;1.55;;
79578;SDS011;69051;52.406;5.280;2023-07-29T01:38:13;6.82;;;1.42;;
79578;SDS011;69051;52.406;5.280;2023-07-29T01:40:43;6.35;;;1.55;;
79578;SDS011;69051;52.406;5.280;2023-07-29T01:43:10;7.32;;;1.23;;
79578;SDS011;69051;52.406;5.280;2023-07-29T01:45:37;4.25;;;1.05;;
79578;SDS011;69051;52.406;5.280;2023-07-29T01:48:05;9.23;;;1.55;;
79578;SDS011;69051;52.406;5.280;2023-07-29T01:50:32;7.50;;;1.40;;
79578;SDS011;69051;52.406;5.280;2023-07-29T01:52:58;6.07;;;1.67;;
79578;SDS011;69051;52.406;5.280;2023-07-29T01:55:25;5.28;;;1.30;;
79578;SDS011;69051;52.406;5.280;2023-07-29T01:57:51;7.50;;;2.00;;
79578;SDS011;69051;52.406;5.280;2023-07-29T02:00:18;5.40;;;1.67;;
79578;SDS011;69051;52.406;5.280;2023-07-29T02:02:45;3.30;;;1.10;;
79578;SDS011;69051;52.406;5.280;2023-07-29T02:05:12;5.50;;;1.40;;
79578;SDS011;69051;52.406;5.280;2023-07-29T02:07:38;5.43;;;1.30;;
79578;SDS011;69051;52.406;5.280;2023-07-29T02:10:05;5.45;;;1.60;;
79578;SDS011;69051;52.406;5.280;2023-07-29T02:12:32;7.10;;;1.33;;
79578;SDS011;69051;52.406;5.280;2023-07-29T02:14:58;7.10;;;1.30;;
79578;SDS011;69051;52.406;5.280;2023-07-29T02:17:24;6.03;;;1.40;;
79578;SDS011;69051;52.406;5.280;2023-07-29T02:19:52;8.05;;;1.60;;
79578;SDS011;69051;52.406;5.280;2023-07-29T02:22:18;6.55;;;1.58;;
79578;SDS011;69051;52.406;5.280;2023-07-29T02:24:45;8.25;;;1.58;;
79578;SDS011;69051;52.406;5.280;2023-07-29T02:27:11;6.28;;;1.80;;
79578;SDS011;69051;52.406;5.280;2023-07-29T02:29:38;6.80;;;1.80;;
79578;SDS011;69051;52.406;5.280;2023-07-29T02:32:04;10.57;;;1.88;;
79578;SDS011;69051;52.406;5.280;2023-07-29T02:34:31;6.47;;;1.60;;
79578;SDS011;69051;52.406;5.280;2023-07-29T02:36:57;4.90;;;2.33;;
79578;SDS011;69051;52.406;5.280;2023-07-29T02:39:24;7.32;;;1.75;;
79578;SDS011;69051;52.406;5.280;2023-07-29T02:41:51;10.77;;;1.83;;
79578;SDS011;69051;52.406;5.280;2023-07-29T02:44:17;6.72;;;1.50;;
79578;SDS011;69051;52.406;5.280;2023-07-29T02:46:45;6.97;;;2.03;;
79578;SDS011;69051;52.406;5.280;2023-07-29T02:49:12;10.10;;;1.98;;
79578;SDS011;69051;52.406;5.280;2023-07-29T02:51:38;11.15;;;2.30;;
79578;SDS011;69051;52.406;5.280;2023-07-29T02:54:05;9.55;;;2.00;;
79578;SDS011;69051;52.406;5.280;2023-07-29T02:56:31;10.00;;;2.83;;
79578;SDS011;69051;52.406;5.280;2023-07-29T02:58:58;9.65;;;2.03;;
79578;SDS011;69051;52.406;5.280;2023-07-29T03:01:24;11.57;;;2.25;;
79578;SDS011;69051;52.406;5.280;2023-07-29T03:03:51;5.03;;;1.95;;
79578;SDS011;69051;52.406;5.280;2023-07-29T03:06:18;6.82;;;2.55;;
79578;SDS011;69051;52.406;5.280;2023-07-29T03:08:45;9.15;;;2.58;;
79578;SDS011;69051;52.406;5.280;2023-07-29T03:11:13;8.02;;;2.22;;
79578;SDS011;69051;52.406;5.280;2023-07-29T03:13:40;7.43;;;2.22;;
79578;SDS011;69051;52.406;5.280;2023-07-29T03:16:07;7.35;;;2.40;;
79578;SDS011;69051;52.406;5.280;2023-07-29T03:18:35;6.70;;;2.00;;
79578;SDS011;69051;52.406;5.280;2023-07-29T03:21:02;11.07;;;2.53;;
79578;SDS011;69051;52.406;5.280;2023-07-29T03:23:29;8.30;;;2.97;;
79578;SDS011;69051;52.406;5.280;2023-07-29T03:25:56;7.43;;;2.33;;
79578;SDS011;69051;52.406;5.280;2023-07-29T03:28:28;9.68;;;2.30;;
79578;SDS011;69051;52.406;5.280;2023-07-29T03:30:56;8.82;;;2.50;;
79578;SDS011;69051;52.406;5.280;2023-07-29T03:33:23;8.40;;;2.55;;
79578;SDS011;69051;52.406;5.280;2023-07-29T03:35:50;7.47;;;2.40;;
79578;SDS011;69051;52.406;5.280;2023-07-29T03:38:17;7.45;;;2.20;;
79578;SDS011;69051;52.406;5.280;2023-07-29T03:40:44;12.18;;;2.15;;
79578;SDS011;69051;52.406;5.280;2023-07-29T03:43:10;9.85;;;2.10;;
79578;SDS011;69051;52.406;5.280;2023-07-29T03:45:37;11.32;;;2.72;;
79578;SDS011;69051;52.406;5.280;2023-07-29T03:48:04;7.00;;;2.72;;
79578;SDS011;69051;52.406;5.280;2023-07-29T03:50:32;8.00;;;2.15;;
79578;SDS011;69051;52.406;5.280;2023-07-29T03:52:59;11.10;;;2.67;;
79578;SDS011;69051;52.406;5.280;2023-07-29T03:55:26;13.02;;;2.97;;
79578;SDS011;69051;52.406;5.280;2023-07-29T03:57:52;7.85;;;2.20;;
79578;SDS011;69051;52.406;5.280;2023-07-29T04:00:19;8.45;;;2.38;;
79578;SDS011;69051;52.406;5.280;2023-07-29T04:02:45;12.43;;;2.58;;
79578;SDS011;69051;52.406;5.280;2023-07-29T04:05:12;9.55;;;2.80;;
79578;SDS011;69051;52.406;5.280;2023-07-29T04:07:39;8.98;;;3.00;;
79578;SDS011;69051;52.406;5.280;2023-07-29T04:10:06;9.93;;;2.90;;
79578;SDS011;69051;52.406;5.280;2023-07-29T04:12:33;9.63;;;2.67;;
79578;SDS011;69051;52.406;5.280;2023-07-29T04:15:00;7.10;;;2.85;;
79578;SDS011;69051;52.406;5.280;2023-07-29T04:17:26;8.13;;;2.50;;
79578;SDS011;69051;52.406;5.280;2023-07-29T04:19:53;7.60;;;2.78;;
79578;SDS011;69051;52.406;5.280;2023-07-29T04:22:19;7.25;;;2.85;;
79578;SDS011;69051;52.406;5.280;2023-07-29T04:24:46;16.52;;;2.63;;
79578;SDS011;69051;52.406;5.280;2023-07-29T04:27:12;12.07;;;3.15;;
79578;SDS011;69051;52.406;5.280;2023-07-29T04:29:39;7.43;;;2.40;;
79578;SDS011;69051;52.406;5.280;2023-07-29T04:32:05;9.10;;;2.53;;
79578;SDS011;69051;52.406;5.280;2023-07-29T04:34:32;9.65;;;2.65;;
79578;SDS011;69051;52.406;5.280;2023-07-29T04:36:58;5.40;;;2.00;;
79578;SDS011;69051;52.406;5.280;2023-07-29T04:39:25;10.15;;;2.33;;
79578;SDS011;69051;52.406;5.280;2023-07-29T04:41:52;7.13;;;2.33;;
79578;SDS011;69051;52.406;5.280;2023-07-29T04:44:18;6.40;;;2.35;;
79578;SDS011;69051;52.406;5.280;2023-07-29T04:46:45;7.40;;;2.28;;
79578;SDS011;69051;52.406;5.280;2023-07-29T04:49:12;7.55;;;2.30;;
79578;SDS011;69051;52.406;5.280;2023-07-29T04:51:38;13.25;;;2.50;;
79578;SDS011;69051;52.406;5.280;2023-07-29T04:54:05;9.23;;;3.08;;
79578;SDS011;69051;52.406;5.280;2023-07-29T04:56:31;7.28;;;2.25;;
79578;SDS011;69051;52.406;5.280;2023-07-29T04:58:58;9.25;;;3.17;;
79578;SDS011;69051;52.406;5.280;2023-07-29T05:01:24;10.65;;;2.28;;
79578;SDS011;69051;52.406;5.280;2023-07-29T05:03:51;7.63;;;2.05;;
79578;SDS011;69051;52.406;5.280;2023-07-29T05:06:17;6.40;;;2.40;;
79578;SDS011;69051;52.406;5.280;2023-07-29T05:08:44;10.02;;;2.53;;
79578;SDS011;69051;52.406;5.280;2023-07-29T05:11:10;9.63;;;2.42;;
79578;SDS011;69051;52.406;5.280;2023-07-29T05:13:37;9.55;;;3.22;;
79578;SDS011;69051;52.406;5.280;2023-07-29T05:16:04;9.65;;;2.30;;
79578;SDS011;69051;52.406;5.280;2023-07-29T05:18:30;7.35;;;2.00;;
79578;SDS011;69051;52.406;5.280;2023-07-29T05:20:57;9.55;;;2.33;;
79578;SDS011;69051;52.406;5.280;2023-07-29T05:23:23;7.90;;;2.80;;
79578;SDS011;69051;52.406;5.280;2023-07-29T05:25:51;7.63;;;2.78;;
79578;SDS011;69051;52.406;5.280;2023-07-29T05:28:17;12.38;;;3.30;;
79578;SDS011;69051;52.406;5.280;2023-07-29T05:30:44;8.55;;;2.55;;
79578;SDS011;69051;52.406;5.280;2023-07-29T05:33:10;8.77;;;3.25;;
79578;SDS011;69051;52.406;5.280;2023-07-29T05:35:37;11.57;;;2.75;;
79578;SDS011;69051;52.406;5.280;2023-07-29T05:38:03;9.68;;;2.83;;
79578;SDS011;69051;52.406;5.280;2023-07-29T05:40:32;10.38;;;3.40;;
79578;SDS011;69051;52.406;5.280;2023-07-29T05:42:58;11.15;;;3.40;;
79578;SDS011;69051;52.406;5.280;2023-07-29T05:45:25;11.73;;;3.13;;
79578;SDS011;69051;52.406;5.280;2023-07-29T05:47:51;13.55;;;3.55;;
79578;SDS011;69051;52.406;5.280;2023-07-29T05:50:18;10.18;;;3.72;;
79578;SDS011;69051;52.406;5.280;2023-07-29T05:52:44;11.15;;;3.38;;
79578;SDS011;69051;52.406;5.280;2023-07-29T05:55:11;13.05;;;4.20;;
79578;SDS011;69051;52.406;5.280;2023-07-29T05:57:37;7.88;;;3.08;;
79578;SDS011;69051;52.406;5.280;2023-07-29T06:00:06;12.07;;;3.92;;
79578;SDS011;69051;52.406;5.280;2023-07-29T06:02:33;10.07;;;3.53;;
79578;SDS011;69051;52.406;5.280;2023-07-29T06:04:59;10.82;;;3.45;;
79578;SDS011;69051;52.406;5.280;2023-07-29T06:07:27;12.32;;;3.53;;
79578;SDS011;69051;52.406;5.280;2023-07-29T06:09:56;8.52;;;3.35;;
79578;SDS011;69051;52.406;5.280;2023-07-29T06:12:22;12.40;;;3.30;;
79578;SDS011;69051;52.406;5.280;2023-07-29T06:14:48;14.10;;;3.65;;
79578;SDS011;69051;52.406;5.280;2023-07-29T06:17:15;9.57;;;3.08;;
79578;SDS011;69051;52.406;5.280;2023-07-29T06:19:41;9.75;;;3.35;;
79578;SDS011;69051;52.406;5.280;2023-07-29T06:22:09;9.18;;;3.05;;
79578;SDS011;69051;52.406;5.280;2023-07-29T06:24:36;13.90;;;3.72;;
79578;SDS011;69051;52.406;5.280;2023-07-29T06:27:02;18.17;;;4.07;;
79578;SDS011;69051;52.406;5.280;2023-07-29T06:29:29;6.85;;;2.95;;
79578;SDS011;69051;52.406;5.280;2023-07-29T06:31:55;9.85;;;3.17;;
79578;SDS011;69051;52.406;5.280;2023-07-29T06:34:22;13.95;;;3.88;;
79578;SDS011;69051;52.406;5.280;2023-07-29T06:36:52;10.38;;;3.10;;
79578;SDS011;69051;52.406;5.280;2023-07-29T06:39:18;10.13;;;3.15;;
79578;SDS011;69051;52.406;5.280;2023-07-29T06:41:44;9.77;;;3.15;;
79578;SDS011;69051;52.406;5.280;2023-07-29T06:44:11;10.25;;;3.70;;
79578;SDS011;69051;52.406;5.280;2023-07-29T06:46:37;11.43;;;2.83;;
79578;SDS011;69051;52.406;5.280;2023-07-29T06:49:05;8.60;;;3.00;;
79578;SDS011;69051;52.406;5.280;2023-07-29T06:51:31;12.85;;;3.58;;
79578;SDS011;69051;52.406;5.280;2023-07-29T06:54:03;10.02;;;4.65;;
79578;SDS011;69051;52.406;5.280;2023-07-29T06:56:30;12.70;;;3.05;;
79578;SDS011;69051;52.406;5.280;2023-07-29T06:58:56;7.75;;;2.72;;
79578;SDS011;69051;52.406;5.280;2023-07-29T07:01:23;7.88;;;3.17;;
79578;SDS011;69051;52.406;5.280;2023-07-29T07:03:49;9.43;;;3.70;;
79578;SDS011;69051;52.406;5.280;2023-07-29T07:06:16;12.63;;;3.63;;
79578;SDS011;69051;52.406;5.280;2023-07-29T07:08:43;11.43;;;3.22;;
79578;SDS011;69051;52.406;5.280;2023-07-29T07:11:10;10.80;;;3.42;;
79578;SDS011;69051;52.406;5.280;2023-07-29T07:13:36;12.60;;;3.53;;
79578;SDS011;69051;52.406;5.280;2023-07-29T07:16:03;8.55;;;3.08;;
79578;SDS011;69051;52.406;5.280;2023-07-29T07:18:29;12.25;;;4.75;;
79578;SDS011;69051;52.406;5.280;2023-07-29T07:20:56;8.52;;;3.50;;
79578;SDS011;69051;52.406;5.280;2023-07-29T07:23:23;10.60;;;3.03;;
79578;SDS011;69051;52.406;5.280;2023-07-29T07:25:49;11.60;;;3.50;;
79578;SDS011;69051;52.406;5.280;2023-07-29T07:28:15;9.02;;;3.40;;
79578;SDS011;69051;52.406;5.280;2023-07-29T07:30:42;11.02;;;3.17;;
79578;SDS011;69051;52.406;5.280;2023-07-29T07:33:08;10.40;;;3.60;;
79578;SDS011;69051;52.406;5.280;2023-07-29T07:35:35;10.35;;;3.72;;
79578;SDS011;69051;52.406;5.280;2023-07-29T07:38:02;11.82;;;3.15;;
79578;SDS011;69051;52.406;5.280;2023-07-29T07:40:30;10.70;;;3.42;;
79578;SDS011;69051;52.406;5.280;2023-07-29T07:42:57;12.80;;;3.60;;
79578;SDS011;69051;52.406;5.280;2023-07-29T07:45:24;11.73;;;3.22;;
79578;SDS011;69051;52.406;5.280;2023-07-29T07:47:51;7.93;;;3.13;;
79578;SDS011;69051;52.406;5.280;2023-07-29T07:50:19;10.07;;;3.05;;
79578;SDS011;69051;52.406;5.280;2023-07-29T07:52:46;8.48;;;3.03;;
79578;SDS011;69051;52.406;5.280;2023-07-29T07:55:13;13.38;;;3.45;;
79578;SDS011;69051;52.406;5.280;2023-07-29T07:57:40;10.80;;;3.03;;
79578;SDS011;69051;52.406;5.280;2023-07-29T08:00:07;11.00;;;3.20;;
79578;SDS011;69051;52.406;5.280;2023-07-29T08:02:33;8.00;;;2.90;;
79578;SDS011;69051;52.406;5.280;2023-07-29T08:05:00;7.28;;;2.47;;
79578;SDS011;69051;52.406;5.280;2023-07-29T08:07:27;10.57;;;3.10;;
79578;SDS011;69051;52.406;5.280;2023-07-29T08:09:53;10.02;;;3.15;;
79578;SDS011;69051;52.406;5.280;2023-07-29T08:12:20;9.63;;;2.75;;
79578;SDS011;69051;52.406;5.280;2023-07-29T08:14:46;8.50;;;2.53;;
79578;SDS011;69051;52.406;5.280;2023-07-29T08:17:13;8.30;;;2.60;;
79578;SDS011;69051;52.406;5.280;2023-07-29T08:19:39;9.38;;;3.58;;
79578;SDS011;69051;52.406;5.280;2023-07-29T08:22:06;10.10;;;3.40;;
79578;SDS011;69051;52.406;5.280;2023-07-29T08:24:32;8.57;;;3.25;;
79578;SDS011;69051;52.406;5.280;2023-07-29T08:27:00;10.45;;;3.22;;
79578;SDS011;69051;52.406;5.280;2023-07-29T08:29:27;7.38;;;3.63;;
79578;SDS011;69051;52.406;5.280;2023-07-29T08:31:53;9.20;;;3.70;;
79578;SDS011;69051;52.406;5.280;2023-07-29T08:34:21;10.18;;;3.80;;
79578;SDS011;69051;52.406;5.280;2023-07-29T08:36:48;10.18;;;3.90;;
79578;SDS011;69051;52.406;5.280;2023-07-29T08:39:14;8.05;;;3.25;;
79578;SDS011;69051;52.406;5.280;2023-07-29T08:41:43;9.73;;;3.22;;
79578;SDS011;69051;52.406;5.280;2023-07-29T08:44:23;9.43;;;2.83;;
79578;SDS011;69051;52.406;5.280;2023-07-29T08:46:51;7.15;;;2.25;;
79578;SDS011;69051;52.406;5.280;2023-07-29T08:49:18;8.90;;;3.28;;
79578;SDS011;69051;52.406;5.280;2023-07-29T08:51:48;8.25;;;2.60;;
79578;SDS011;69051;52.406;5.280;2023-07-29T08:54:15;6.20;;;2.55;;
79578;SDS011;69051;52.406;5.280;2023-07-29T08:56:42;6.55;;;1.88;;
79578;SDS011;69051;52.406;5.280;2023-07-29T08:59:09;11.05;;;2.42;;
79578;SDS011;69051;52.406;5.280;2023-07-29T09:01:40;9.80;;;2.10;;
79578;SDS011;69051;52.406;5.280;2023-07-29T09:04:07;6.78;;;1.70;;
79578;SDS011;69051;52.406;5.280;2023-07-29T09:06:34;9.30;;;2.17;;
79578;SDS011;69051;52.406;5.280;2023-07-29T09:09:02;7.25;;;1.40;;
79578;SDS011;69051;52.406;5.280;2023-07-29T09:11:28;6.85;;;1.58;;
79578;SDS011;69051;52.406;5.280;2023-07-29T09:13:55;7.07;;;1.30;;
79578;SDS011;69051;52.406;5.280;2023-07-29T09:16:22;6.30;;;1.50;;
79578;SDS011;69051;52.406;5.280;2023-07-29T09:18:49;5.00;;;1.13;;
79578;SDS011;69051;52.406;5.280;2023-07-29T09:21:17;10.45;;;1.90;;
79578;SDS011;69051;52.406;5.280;2023-07-29T09:23:44;8.18;;;1.92;;
79578;SDS011;69051;52.406;5.280;2023-07-29T09:26:11;10.30;;;1.85;;
79578;SDS011;69051;52.406;5.280;2023-07-29T09:28:38;4.10;;;1.30;;
79578;SDS011;69051;52.406;5.280;2023-07-29T09:31:06;6.32;;;1.70;;
79578;SDS011;69051;52.406;5.280;2023-07-29T09:33:33;7.70;;;1.63;;
79578;SDS011;69051;52.406;5.280;2023-07-29T09:36:12;4.45;;;1.67;;
79578;SDS011;69051;52.406;5.280;2023-07-29T09:38:39;8.18;;;1.70;;
79578;SDS011;69051;52.406;5.280;2023-07-29T09:41:06;7.50;;;1.42;;
79578;SDS011;69051;52.406;5.280;2023-07-29T09:43:33;6.75;;;1.65;;
79578;SDS011;69051;52.406;5.280;2023-07-29T09:46:01;8.68;;;1.70;;
79578;SDS011;69051;52.406;5.280;2023-07-29T09:48:32;5.78;;;1.83;;
79578;SDS011;69051;52.406;5.280;2023-07-29T09:50:59;10.30;;;1.67;;
79578;SDS011;69051;52.406;5.280;2023-07-29T09:53:25;9.60;;;2.00;;
79578;SDS011;69051;52.406;5.280;2023-07-29T09:55:52;9.52;;;1.80;;
79578;SDS011;69051;52.406;5.280;2023-07-29T09:58:19;11.52;;;2.28;;
79578;SDS011;69051;52.406;5.280;2023-07-29T10:00:51;5.90;;;2.08;;
79578;SDS011;69051;52.406;5.280;2023-07-29T10:03:21;7.30;;;2.33;;
79578;SDS011;69051;52.406;5.280;2023-07-29T10:05:48;11.82;;;2.88;;
79578;SDS011;69051;52.406;5.280;2023-07-29T10:08:15;8.13;;;2.25;;
79578;SDS011;69051;52.406;5.280;2023-07-29T10:10:42;7.55;;;1.83;;
79578;SDS011;69051;52.406;5.280;2023-07-29T10:13:09;5.30;;;1.60;;
79578;SDS011;69051;52.406;5.280;2023-07-29T10:15:35;8.52;;;2.05;;
79578;SDS011;69051;52.406;5.280;2023-07-29T10:18:02;6.07;;;1.70;;
79578;SDS011;69051;52.406;5.280;2023-07-29T10:20:32;6.90;;;1.58;;
79578;SDS011;69051;52.406;5.280;2023-07-29T10:22:59;10.68;;;2.15;;
79578;SDS011;69051;52.406;5.280;2023-07-29T10:25:30;6.68;;;1.70;;
79578;SDS011;69051;52.406;5.280;2023-07-29T10:28:07;6.97;;;2.03;;
79578;SDS011;69051;52.406;5.280;2023-07-29T10:30:34;9.00;;;1.90;;
79578;SDS011;69051;52.406;5.280;2023-07-29T10:33:02;4.75;;;1.52;;
79578;SDS011;69051;52.406;5.280;2023-07-29T10:35:29;6.28;;;1.50;;
79578;SDS011;69051;52.406;5.280;2023-07-29T10:37:56;4.20;;;1.30;;
79578;SDS011;69051;52.406;5.280;2023-07-29T10:40:23;8.52;;;1.73;;
79578;SDS011;69051;52.406;5.280;2023-07-29T10:43:00;5.57;;;1.77;;
79578;SDS011;69051;52.406;5.280;2023-07-29T10:45:27;5.93;;;1.52;;
79578;SDS011;69051;52.406;5.280;2023-07-29T10:48:13;9.57;;;1.67;;
79578;SDS011;69051;52.406;5.280;2023-07-29T10:51:21;7.93;;;2.28;;
79578;SDS011;69051;52.406;5.280;2023-07-29T10:53:51;6.80;;;1.70;;
79578;SDS011;69051;52.406;5.280;2023-07-29T10:56:29;6.55;;;1.60;;
79578;SDS011;69051;52.406;5.280;2023-07-29T11:01:39;7.18;;;2.05;;
79578;SDS011;69051;52.406;5.280;2023-07-29T11:09:42;7.53;;;1.60;;
79578;SDS011;69051;52.406;5.280;2023-07-29T11:20:17;6.75;;;1.65;;
79578;SDS011;69051;52.406;5.280;2023-07-29T11:22:44;6.13;;;1.67;;
79578;SDS011;69051;52.406;5.280;2023-07-29T11:25:12;6.38;;;2.00;;
79578;SDS011;69051;52.406;5.280;2023-07-29T11:27:40;5.28;;;1.65;;
79578;SDS011;69051;52.406;5.280;2023-07-29T11:30:07;6.70;;;1.48;;
79578;SDS011;69051;52.406;5.280;2023-07-29T11:32:35;8.77;;;2.03;;
79578;SDS011;69051;52.406;5.280;2023-07-29T11:35:03;7.03;;;1.80;;
79578;SDS011;69051;52.406;5.280;2023-07-29T11:37:30;4.68;;;1.80;;
79578;SDS011;69051;52.406;5.280;2023-07-29T11:39:56;6.80;;;2.00;;
79578;SDS011;69051;52.406;5.280;2023-07-29T11:42:24;5.25;;;1.70;;
79578;SDS011;69051;52.406;5.280;2023-07-29T11:44:52;7.15;;;2.15;;
79578;SDS011;69051;52.406;5.280;2023-07-29T11:47:18;8.55;;;1.83;;
79578;SDS011;69051;52.406;5.280;2023-07-29T11:49:45;7.47;;;1.77;;
79578;SDS011;69051;52.406;5.280;2023-07-29T11:52:12;4.70;;;1.75;;
79578;SDS011;69051;52.406;5.280;2023-07-29T11:54:38;5.78;;;2.10;;
79578;SDS011;69051;52.406;5.280;2023-07-29T11:57:06;6.03;;;1.60;;
79578;SDS011;69051;52.406;5.280;2023-07-29T11:59:34;4.85;;;1.50;;
79578;SDS011;69051;52.406;5.280;2023-07-29T12:02:03;6.35;;;2.03;;
79578;SDS011;69051;52.406;5.280;2023-07-29T12:04:33;5.30;;;1.60;;
79578;SDS011;69051;52.406;5.280;2023-07-29T12:06:59;5.50;;;1.80;;
79578;SDS011;69051;52.406;5.280;2023-07-29T12:09:27;6.95;;;1.90;;
79578;SDS011;69051;52.406;5.280;2023-07-29T12:11:54;4.18;;;1.80;;
79578;SDS011;69051;52.406;5.280;2023-07-29T12:14:32;7.10;;;1.80;;
79578;SDS011;69051;52.406;5.280;2023-07-29T12:16:59;7.10;;;1.67;;
79578;SDS011;69051;52.406;5.280;2023-07-29T12:19:36;4.78;;;1.60;;
79578;SDS011;69051;52.406;5.280;2023-07-29T12:22:04;4.30;;;1.48;;
79578;SDS011;69051;52.406;5.280;2023-07-29T12:24:32;5.95;;;1.75;;
79578;SDS011;69051;52.406;5.280;2023-07-29T12:27:00;6.22;;;1.92;;
79578;SDS011;69051;52.406;5.280;2023-07-29T12:29:27;6.50;;;1.92;;
79578;SDS011;69051;52.406;5.280;2023-07-29T12:32:03;7.32;;;2.25;;
79578;SDS011;69051;52.406;5.280;2023-07-29T12:34:30;4.97;;;2.30;;
79578;SDS011;69051;52.406;5.280;2023-07-29T12:36:57;5.03;;;2.25;;
79578;SDS011;69051;52.406;5.280;2023-07-29T12:39:25;7.68;;;2.38;;
79578;SDS011;69051;52.406;5.280;2023-07-29T12:41:54;4.10;;;1.73;;
79578;SDS011;69051;52.406;5.280;2023-07-29T12:44:25;7.38;;;1.90;;
79578;SDS011;69051;52.406;5.280;2023-07-29T12:46:57;3.65;;;1.40;;
79578;SDS011;69051;52.406;5.280;2023-07-29T12:49:23;3.17;;;1.10;;
79578;SDS011;69051;52.406;5.280;2023-07-29T12:51:51;3.80;;;1.20;;
79578;SDS011;69051;52.406;5.280;2023-07-29T12:54:17;5.55;;;1.05;;
79578;SDS011;69051;52.406;5.280;2023-07-29T12:56:44;3.45;;;1.30;;
79578;SDS011;69051;52.406;5.280;2023-07-29T12:59:10;3.67;;;1.10;;
79578;SDS011;69051;52.406;5.280;2023-07-29T13:01:36;2.75;;;1.00;;
79578;SDS011;69051;52.406;5.280;2023-07-29T13:04:03;3.53;;;1.13;;
79578;SDS011;69051;52.406;5.280;2023-07-29T13:06:29;2.85;;;1.00;;
79578;SDS011;69051;52.406;5.280;2023-07-29T13:08:58;4.85;;;1.10;;
79578;SDS011;69051;52.406;5.280;2023-07-29T13:11:24;7.88;;;3.03;;
79578;SDS011;69051;52.406;5.280;2023-07-29T13:13:52;9.15;;;1.50;;
79578;SDS011;69051;52.406;5.280;2023-07-29T13:16:18;7.45;;;1.60;;
79578;SDS011;69051;52.406;5.280;2023-07-29T13:18:45;4.45;;;1.17;;
79578;SDS011;69051;52.406;5.280;2023-07-29T13:21:11;4.75;;;1.45;;
79578;SDS011;69051;52.406;5.280;2023-07-29T13:23:38;5.28;;;1.70;;
79578;SDS011;69051;52.406;5.280;2023-07-29T13:26:04;4.63;;;1.58;;
79578;SDS011;69051;52.406;5.280;2023-07-29T13:28:31;5.78;;;1.73;;
79578;SDS011;69051;52.406;5.280;2023-07-29T13:30:57;6.25;;;1.85;;
79578;SDS011;69051;52.406;5.280;2023-07-29T13:33:24;5.40;;;1.55;;
79578;SDS011;69051;52.406;5.280;2023-07-29T13:35:51;4.88;;;1.50;;
79578;SDS011;69051;52.406;5.280;2023-07-29T13:38:17;5.03;;;1.60;;
79578;SDS011;69051;52.406;5.280;2023-07-29T13:40:44;5.70;;;1.65;;
79578;SDS011;69051;52.406;5.280;2023-07-29T13:43:10;4.75;;;1.73;;
79578;SDS011;69051;52.406;5.280;2023-07-29T13:45:37;3.42;;;1.40;;
79578;SDS011;69051;52.406;5.280;2023-07-29T13:48:05;6.63;;;2.75;;
79578;SDS011;69051;52.406;5.280;2023-07-29T13:50:31;5.85;;;1.35;;
79578;SDS011;69051;52.406;5.280;2023-07-29T13:52:58;5.70;;;1.80;;
79578;SDS011;69051;52.406;5.280;2023-07-29T13:55:24;3.50;;;1.40;;
79578;SDS011;69051;52.406;5.280;2023-07-29T13:57:51;4.60;;;1.27;;
79578;SDS011;69051;52.406;5.280;2023-07-29T14:00:19;5.07;;;1.40;;
79578;SDS011;69051;52.406;5.280;2023-07-29T14:02:45;4.82;;;1.27;;
79578;SDS011;69051;52.406;5.280;2023-07-29T14:05:12;5.40;;;1.30;;
79578;SDS011;69051;52.406;5.280;2023-07-29T14:07:38;4.18;;;1.27;;
79578;SDS011;69051;52.406;5.280;2023-07-29T14:10:05;3.97;;;1.30;;
79578;SDS011;69051;52.406;5.280;2023-07-29T14:12:32;4.57;;;1.55;;
79578;SDS011;69051;52.406;5.280;2023-07-29T14:14:58;6.88;;;1.58;;
79578;SDS011;69051;52.406;5.280;2023-07-29T14:17:25;5.28;;;1.48;;
79578;SDS011;69051;52.406;5.280;2023-07-29T14:19:51;6.03;;;1.52;;
79578;SDS011;69051;52.406;5.280;2023-07-29T14:22:18;4.60;;;1.40;;
79578;SDS011;69051;52.406;5.280;2023-07-29T14:24:44;9.65;;;1.67;;
79578;SDS011;69051;52.406;5.280;2023-07-29T14:27:11;4.82;;;1.50;;
79578;SDS011;69051;52.406;5.280;2023-07-29T14:29:37;4.82;;;1.70;;
79578;SDS011;69051;52.406;5.280;2023-07-29T14:32:04;4.38;;;1.50;;
79578;SDS011;69051;52.406;5.280;2023-07-29T14:34:30;4.20;;;1.50;;
79578;SDS011;69051;52.406;5.280;2023-07-29T14:36:57;4.65;;;1.40;;
79578;SDS011;69051;52.406;5.280;2023-07-29T14:39:23;4.53;;;1.52;;
79578;SDS011;69051;52.406;5.280;2023-07-29T14:41:50;6.05;;;1.45;;
79578;SDS011;69051;52.406;5.280;2023-07-29T14:44:16;4.50;;;1.45;;
79578;SDS011;69051;52.406;5.280;2023-07-29T14:46:43;5.10;;;1.40;;
79578;SDS011;69051;52.406;5.280;2023-07-29T14:49:09;5.68;;;1.25;;
79578;SDS011;69051;52.406;5.280;2023-07-29T14:51:36;4.35;;;1.42;;
79578;SDS011;69051;52.406;5.280;2023-07-29T14:54:03;5.45;;;1.27;;
79578;SDS011;69051;52.406;5.280;2023-07-29T14:56:30;3.45;;;1.13;;
79578;SDS011;69051;52.406;5.280;2023-07-29T14:58:57;7.05;;;1.40;;
79578;SDS011;69051;52.406;5.280;2023-07-29T15:01:24;5.82;;;1.20;;
79578;SDS011;69051;52.406;5.280;2023-07-29T15:03:51;3.75;;;1.33;;
79578;SDS011;69051;52.406;5.280;2023-07-29T15:06:17;4.78;;;1.40;;
79578;SDS011;69051;52.406;5.280;2023-07-29T15:08:44;4.30;;;1.20;;
79578;SDS011;69051;52.406;5.280;2023-07-29T15:11:10;3.55;;;1.30;;